PAA511 EDDM-LOWI
Flight info
| Callsign | PAA511 |
|---|---|
| Flight time | 0h 25m |
| Altitude | 15000 |
| Route | TURBU7N TURBU Y107 RTT RTT1B |
| Aircraft | B738/M-SDE2E3FGHIRWXY/LB1 |
Departure
| Time | 2026-05-05 21:39 |
|---|---|
| Airport | Munich Airport (EDDM) |
Arrival
| Time | 2026-05-05 22:04 |
|---|---|
| Airport | Innsbruck Airport (LOWI) |
| Time | Latitude | Longitude | Altitude | Speed | Heading |
|---|---|---|---|---|---|
| 2026-05-05 21:08 | 48.35282 | 11.79772 | 1485 ft | 0 kts | 83° |
| 2026-05-05 21:33 | 48.35282 | 11.79767 | 1483 ft | 3 kts | 94° |
| 2026-05-05 21:33 | 48.35285 | 11.79749 | 1472 ft | 3 kts | 117° |
| 2026-05-05 21:33 | 48.35293 | 11.79725 | 1474 ft | 3 kts | 117° |
| 2026-05-05 21:34 | 48.35301 | 11.79701 | 1470 ft | 3 kts | 117° |
| 2026-05-05 21:34 | 48.35310 | 11.79677 | 1470 ft | 3 kts | 117° |
| 2026-05-05 21:34 | 48.35315 | 11.79662 | 1470 ft | 0 kts | 117° |
| 2026-05-05 21:36 | 48.35313 | 11.79665 | 1470 ft | 1 kts | 130° |
| 2026-05-05 21:36 | 48.35307 | 11.79668 | 1470 ft | 1 kts | 159° |
| 2026-05-05 21:36 | 48.35293 | 11.79661 | 1478 ft | 5 kts | 207° |
| 2026-05-05 21:36 | 48.35255 | 11.79636 | 1479 ft | 7 kts | 192° |
| 2026-05-05 21:37 | 48.35205 | 11.79637 | 1473 ft | 7 kts | 176° |
| 2026-05-05 21:37 | 48.35157 | 11.79643 | 1484 ft | 7 kts | 174° |
| 2026-05-05 21:37 | 48.35120 | 11.79651 | 1485 ft | 5 kts | 160° |
| 2026-05-05 21:37 | 48.35113 | 11.79659 | 1485 ft | 0 kts | 136° |
| 2026-05-05 21:38 | 48.35109 | 11.79671 | 1482 ft | 6 kts | 119° |
| 2026-05-05 21:38 | 48.35119 | 11.79941 | 1485 ft | 61 kts | 83° |
| 2026-05-05 21:38 | 48.35200 | 11.80978 | 1476 ft | 136 kts | 83° |
| 2026-05-05 21:39 | 48.35362 | 11.82543 | 1885 ft | 165 kts | 77° |
| 2026-05-05 21:39 | 48.35778 | 11.84252 | 2608 ft | 175 kts | 69° |
| 2026-05-05 21:39 | 48.35845 | 11.85969 | 3526 ft | 172 kts | 107° |
| 2026-05-05 21:39 | 48.35109 | 11.87559 | 3676 ft | 202 kts | 146° |
| 2026-05-05 21:40 | 48.33717 | 11.88112 | 4040 ft | 222 kts | 189° |
| 2026-05-05 21:40 | 48.32259 | 11.87374 | 4584 ft | 222 kts | 203° |
| 2026-05-05 21:40 | 48.30805 | 11.86530 | 5470 ft | 231 kts | 195° |
| 2026-05-05 21:40 | 48.29169 | 11.86581 | 6234 ft | 245 kts | 173° |
| 2026-05-05 21:41 | 48.27428 | 11.86964 | 6946 ft | 261 kts | 172° |
| 2026-05-05 21:41 | 48.25569 | 11.87236 | 7655 ft | 275 kts | 176° |
| 2026-05-05 21:41 | 48.23616 | 11.87410 | 8363 ft | 287 kts | 177° |
| 2026-05-05 21:41 | 48.21578 | 11.87544 | 9102 ft | 298 kts | 178° |
| 2026-05-05 21:42 | 48.20127 | 11.87641 | 9620 ft | 305 kts | 177° |
| 2026-05-05 21:42 | 48.19653 | 11.87674 | 9680 ft | 309 kts | 177° |
| 2026-05-05 21:42 | 48.17538 | 11.87840 | 9827 ft | 298 kts | 177° |
| 2026-05-05 21:42 | 48.15516 | 11.88015 | 10012 ft | 286 kts | 177° |
| 2026-05-05 21:43 | 48.13501 | 11.88193 | 10195 ft | 301 kts | 177° |
| 2026-05-05 21:43 | 48.11338 | 11.88378 | 10369 ft | 316 kts | 177° |
| 2026-05-05 21:43 | 48.09175 | 11.88555 | 10544 ft | 304 kts | 177° |
| 2026-05-05 21:43 | 48.07087 | 11.88718 | 10729 ft | 299 kts | 177° |
| 2026-05-05 21:44 | 48.05006 | 11.88884 | 10931 ft | 301 kts | 177° |
| 2026-05-05 21:44 | 48.03162 | 11.89037 | 11094 ft | 302 kts | 177° |
| 2026-05-05 21:44 | 48.01190 | 11.89203 | 11172 ft | 301 kts | 178° |
| 2026-05-05 21:45 | 47.99080 | 11.89381 | 10974 ft | 304 kts | 177° |
| 2026-05-05 21:45 | 47.96973 | 11.89558 | 10787 ft | 301 kts | 177° |
| 2026-05-05 21:45 | 47.94907 | 11.89731 | 10601 ft | 293 kts | 177° |
| 2026-05-05 21:45 | 47.92895 | 11.89899 | 10406 ft | 285 kts | 177° |
| 2026-05-05 21:46 | 47.90935 | 11.90062 | 10231 ft | 280 kts | 177° |
| 2026-05-05 21:46 | 47.89002 | 11.90222 | 10037 ft | 277 kts | 177° |
| 2026-05-05 21:46 | 47.87084 | 11.90381 | 9847 ft | 275 kts | 177° |
| 2026-05-05 21:46 | 47.85178 | 11.90540 | 9635 ft | 273 kts | 178° |
| 2026-05-05 21:47 | 47.83318 | 11.90695 | 9539 ft | 261 kts | 178° |
| 2026-05-05 21:47 | 47.81535 | 11.90843 | 9556 ft | 253 kts | 178° |
| 2026-05-05 21:47 | 47.79800 | 11.90988 | 9542 ft | 246 kts | 179° |
| 2026-05-05 21:47 | 47.78679 | 11.91080 | 9543 ft | 242 kts | 179° |
| 2026-05-05 21:48 | 47.77013 | 11.91218 | 9534 ft | 239 kts | 179° |
| 2026-05-05 21:48 | 47.75340 | 11.91354 | 9541 ft | 242 kts | 179° |
| 2026-05-05 21:48 | 47.73661 | 11.91492 | 9536 ft | 240 kts | 179° |
| 2026-05-05 21:48 | 47.72039 | 11.91628 | 9400 ft | 228 kts | 179° |
| 2026-05-05 21:49 | 47.70484 | 11.91757 | 9316 ft | 228 kts | 179° |
| 2026-05-05 21:49 | 47.68823 | 11.91890 | 9296 ft | 241 kts | 178° |
| 2026-05-05 21:49 | 47.67186 | 11.92024 | 9252 ft | 235 kts | 178° |
| 2026-05-05 21:49 | 47.65529 | 11.92162 | 9274 ft | 237 kts | 178° |
| 2026-05-05 21:50 | 47.63863 | 11.92300 | 9343 ft | 245 kts | 178° |
| 2026-05-05 21:50 | 47.62184 | 11.92438 | 9350 ft | 238 kts | 179° |
| 2026-05-05 21:50 | 47.60500 | 11.92576 | 9319 ft | 243 kts | 178° |
| 2026-05-05 21:50 | 47.58812 | 11.92714 | 9323 ft | 248 kts | 178° |
| 2026-05-05 21:51 | 47.57106 | 11.92855 | 9364 ft | 243 kts | 178° |
| 2026-05-05 21:51 | 47.56083 | 11.92939 | 9428 ft | 251 kts | 178° |
| 2026-05-05 21:53 | 47.55415 | 11.92996 | 9987 ft | 196 kts | 178° |
| 2026-05-05 21:53 | 47.54107 | 11.93092 | 10369 ft | 200 kts | 180° |
| 2026-05-05 21:53 | 47.52564 | 11.93121 | 10040 ft | 238 kts | 179° |
| 2026-05-05 21:53 | 47.50901 | 11.93270 | 9832 ft | 240 kts | 176° |
| 2026-05-05 21:54 | 47.49204 | 11.93470 | 9661 ft | 245 kts | 176° |
| 2026-05-05 21:54 | 47.47526 | 11.93645 | 9569 ft | 241 kts | 177° |
| 2026-05-05 21:54 | 47.45819 | 11.93793 | 9522 ft | 244 kts | 178° |
| 2026-05-05 21:54 | 47.44142 | 11.93772 | 9498 ft | 239 kts | 187° |
| 2026-05-05 21:55 | 47.42553 | 11.93246 | 9470 ft | 229 kts | 199° |
| 2026-05-05 21:55 | 47.41128 | 11.92276 | 9487 ft | 221 kts | 210° |
| 2026-05-05 21:55 | 47.39852 | 11.91151 | 9525 ft | 207 kts | 210° |
| 2026-05-05 21:55 | 47.38642 | 11.90082 | 9476 ft | 197 kts | 210° |
| 2026-05-05 21:56 | 47.37518 | 11.89087 | 9481 ft | 183 kts | 209° |
| 2026-05-05 21:56 | 47.36398 | 11.88101 | 9526 ft | 191 kts | 209° |
| 2026-05-05 21:56 | 47.35292 | 11.87125 | 9537 ft | 179 kts | 208° |
| 2026-05-05 21:56 | 47.34297 | 11.86020 | 9529 ft | 182 kts | 221° |
| 2026-05-05 21:57 | 47.33479 | 11.84544 | 9513 ft | 188 kts | 234° |
| 2026-05-05 21:57 | 47.32918 | 11.82812 | 9475 ft | 188 kts | 241° |
| 2026-05-05 21:57 | 47.32426 | 11.81036 | 9415 ft | 187 kts | 246° |
| 2026-05-05 21:57 | 47.32079 | 11.79173 | 9504 ft | 191 kts | 251° |
| 2026-05-05 21:58 | 47.31782 | 11.77192 | 9199 ft | 205 kts | 254° |
| 2026-05-05 21:58 | 47.31501 | 11.75154 | 8773 ft | 206 kts | 255° |
| 2026-05-05 21:58 | 47.31218 | 11.73073 | 8311 ft | 211 kts | 254° |
| 2026-05-05 21:58 | 47.30923 | 11.70909 | 7779 ft | 216 kts | 256° |
| 2026-05-05 21:59 | 47.30636 | 11.68775 | 7390 ft | 207 kts | 254° |
| 2026-05-05 21:59 | 47.30362 | 11.66752 | 7051 ft | 196 kts | 255° |
| 2026-05-05 21:59 | 47.30099 | 11.64826 | 6744 ft | 186 kts | 253° |
| 2026-05-05 21:59 | 47.29851 | 11.63004 | 6478 ft | 178 kts | 253° |
| 2026-05-05 22:00 | 47.29604 | 11.61215 | 6205 ft | 178 kts | 256° |
| 2026-05-05 22:00 | 47.29363 | 11.59449 | 5913 ft | 173 kts | 255° |
| 2026-05-05 22:00 | 47.29128 | 11.57733 | 5653 ft | 170 kts | 256° |
| 2026-05-05 22:00 | 47.28893 | 11.56026 | 5364 ft | 170 kts | 255° |
| 2026-05-05 22:01 | 47.28655 | 11.54287 | 5085 ft | 174 kts | 255° |
| 2026-05-05 22:01 | 47.28411 | 11.52519 | 4782 ft | 178 kts | 255° |
| 2026-05-05 22:01 | 47.28161 | 11.50703 | 4484 ft | 182 kts | 256° |
| 2026-05-05 22:01 | 47.27911 | 11.48890 | 4189 ft | 180 kts | 256° |
| 2026-05-05 22:02 | 47.27667 | 11.47111 | 3886 ft | 173 kts | 255° |
| 2026-05-05 22:02 | 47.27438 | 11.45452 | 3635 ft | 159 kts | 256° |
| 2026-05-05 22:02 | 47.27225 | 11.43909 | 3393 ft | 151 kts | 255° |
| 2026-05-05 22:02 | 47.27018 | 11.42416 | 3126 ft | 146 kts | 256° |
| 2026-05-05 22:03 | 47.26813 | 11.40945 | 2867 ft | 147 kts | 256° |
| 2026-05-05 22:03 | 47.26610 | 11.39480 | 2607 ft | 148 kts | 256° |
| 2026-05-05 22:03 | 47.26402 | 11.37956 | 2369 ft | 152 kts | 256° |
| 2026-05-05 22:03 | 47.26244 | 11.36445 | 2061 ft | 147 kts | 259° |
| 2026-05-05 22:04 | 47.26094 | 11.35032 | 1895 ft | 128 kts | 257° |
| 2026-05-05 22:04 | 47.25999 | 11.34189 | 1906 ft | 59 kts | 261° |
| 2026-05-05 22:04 | 47.25969 | 11.33893 | 1903 ft | 24 kts | 262° |
| 2026-05-05 22:04 | 47.25955 | 11.33762 | 1907 ft | 8 kts | 258° |
| 2026-05-05 22:05 | 47.25921 | 11.33700 | 1904 ft | 7 kts | 191° |
| 2026-05-05 22:05 | 47.25884 | 11.33735 | 1907 ft | 8 kts | 131° |
| 2026-05-05 22:05 | 47.25822 | 11.33857 | 1900 ft | 15 kts | 127° |
| 2026-05-05 22:05 | 47.25773 | 11.33985 | 1901 ft | 14 kts | 104° |
| 2026-05-05 22:06 | 47.25777 | 11.34114 | 1899 ft | 12 kts | 79° |
| 2026-05-05 22:06 | 47.25789 | 11.34227 | 1906 ft | 11 kts | 81° |
| 2026-05-05 22:06 | 47.25802 | 11.34359 | 1906 ft | 13 kts | 81° |
| 2026-05-05 22:06 | 47.25816 | 11.34486 | 1904 ft | 15 kts | 81° |
| 2026-05-05 22:07 | 47.25832 | 11.34638 | 1906 ft | 14 kts | 80° |
| 2026-05-05 22:07 | 47.25846 | 11.34776 | 1902 ft | 13 kts | 82° |
| 2026-05-05 22:07 | 47.25859 | 11.34902 | 1906 ft | 12 kts | 81° |
| 2026-05-05 22:07 | 47.25869 | 11.35015 | 1901 ft | 10 kts | 105° |
| 2026-05-05 22:08 | 47.25823 | 11.35043 | 1900 ft | 5 kts | 169° |
| 2026-05-05 22:08 | 47.25817 | 11.35045 | 1894 ft | 0 kts | 169° |